sensor_id;sensor_type;location;lat;lon;timestamp;temperature;humidity
7204;DHT22;3643;52.460;13.322;2023-05-29T00:00:03;14.60;92.90
7204;DHT22;3643;52.460;13.322;2023-05-29T00:02:35;14.50;93.00
7204;DHT22;3643;52.460;13.322;2023-05-29T00:05:04;14.40;93.00
7204;DHT22;3643;52.460;13.322;2023-05-29T00:07:33;14.30;93.10
7204;DHT22;3643;52.460;13.322;2023-05-29T00:10:01;14.30;93.50
7204;DHT22;3643;52.460;13.322;2023-05-29T00:12:30;14.30;93.30
7204;DHT22;3643;52.460;13.322;2023-05-29T00:14:58;14.20;93.10
7204;DHT22;3643;52.460;13.322;2023-05-29T00:17:27;14.30;93.10
7204;DHT22;3643;52.460;13.322;2023-05-29T00:19:57;14.30;93.00
7204;DHT22;3643;52.460;13.322;2023-05-29T00:22:26;14.30;93.10
7204;DHT22;3643;52.460;13.322;2023-05-29T00:24:55;14.20;93.00
7204;DHT22;3643;52.460;13.322;2023-05-29T00:27:23;14.20;93.10
7204;DHT22;3643;52.460;13.322;2023-05-29T00:29:51;14.10;93.00
7204;DHT22;3643;52.460;13.322;2023-05-29T00:32:21;14.10;93.20
7204;DHT22;3643;52.460;13.322;2023-05-29T00:34:49;14.00;93.10
7204;DHT22;3643;52.460;13.322;2023-05-29T00:37:20;14.00;93.20
7204;DHT22;3643;52.460;13.322;2023-05-29T00:39:49;14.10;93.20
7204;DHT22;3643;52.460;13.322;2023-05-29T00:42:17;14.00;93.20
7204;DHT22;3643;52.460;13.322;2023-05-29T00:44:46;14.00;93.30
7204;DHT22;3643;52.460;13.322;2023-05-29T00:47:15;14.00;93.30
7204;DHT22;3643;52.460;13.322;2023-05-29T00:49:44;14.10;93.30
7204;DHT22;3643;52.460;13.322;2023-05-29T00:52:12;14.10;93.20
7204;DHT22;3643;52.460;13.322;2023-05-29T00:54:44;14.00;93.20
7204;DHT22;3643;52.460;13.322;2023-05-29T00:57:13;14.00;93.30
7204;DHT22;3643;52.460;13.322;2023-05-29T00:59:43;14.00;93.20
7204;DHT22;3643;52.460;13.322;2023-05-29T01:02:15;14.00;93.20
7204;DHT22;3643;52.460;13.322;2023-05-29T01:04:46;13.90;93.20
7204;DHT22;3643;52.460;13.322;2023-05-29T01:07:14;13.90;93.20
7204;DHT22;3643;52.460;13.322;2023-05-29T01:09:44;13.90;93.10
7204;DHT22;3643;52.460;13.322;2023-05-29T01:12:23;13.90;93.00
7204;DHT22;3643;52.460;13.322;2023-05-29T01:15:04;13.90;93.00
7204;DHT22;3643;52.460;13.322;2023-05-29T01:17:45;13.90;92.90
7204;DHT22;3643;52.460;13.322;2023-05-29T01:20:25;14.00;92.70
7204;DHT22;3643;52.460;13.322;2023-05-29T01:23:27;14.00;92.80
7204;DHT22;3643;52.460;13.322;2023-05-29T01:26:21;13.90;93.00
7204;DHT22;3643;52.460;13.322;2023-05-29T01:28:57;13.80;93.20
7204;DHT22;3643;52.460;13.322;2023-05-29T01:31:28;13.80;93.40
7204;DHT22;3643;52.460;13.322;2023-05-29T01:33:59;13.80;93.30
7204;DHT22;3643;52.460;13.322;2023-05-29T01:36:27;13.80;93.30
7204;DHT22;3643;52.460;13.322;2023-05-29T01:38:58;13.70;93.30
7204;DHT22;3643;52.460;13.322;2023-05-29T01:41:29;13.70;93.40
7204;DHT22;3643;52.460;13.322;2023-05-29T01:44:01;13.70;93.40
7204;DHT22;3643;52.460;13.322;2023-05-29T01:46:30;13.70;93.80
7204;DHT22;3643;52.460;13.322;2023-05-29T01:48:58;13.70;93.60
7204;DHT22;3643;52.460;13.322;2023-05-29T01:51:27;13.60;93.60
7204;DHT22;3643;52.460;13.322;2023-05-29T01:53:55;13.60;93.80
7204;DHT22;3643;52.460;13.322;2023-05-29T01:56:24;13.50;94.00
7204;DHT22;3643;52.460;13.322;2023-05-29T01:58:54;13.50;94.20
7204;DHT22;3643;52.460;13.322;2023-05-29T02:01:25;13.50;94.30
7204;DHT22;3643;52.460;13.322;2023-05-29T02:03:53;13.40;94.50
7204;DHT22;3643;52.460;13.322;2023-05-29T02:06:22;13.40;94.60
7204;DHT22;3643;52.460;13.322;2023-05-29T02:08:50;13.40;94.70
7204;DHT22;3643;52.460;13.322;2023-05-29T02:11:19;13.30;94.80
7204;DHT22;3643;52.460;13.322;2023-05-29T02:13:47;13.30;95.10
7204;DHT22;3643;52.460;13.322;2023-05-29T02:16:15;13.20;95.20
7204;DHT22;3643;52.460;13.322;2023-05-29T02:18:45;13.10;95.40
7204;DHT22;3643;52.460;13.322;2023-05-29T02:21:14;13.10;95.60
7204;DHT22;3643;52.460;13.322;2023-05-29T02:23:44;13.10;95.70
7204;DHT22;3643;52.460;13.322;2023-05-29T02:26:13;13.10;95.90
7204;DHT22;3643;52.460;13.322;2023-05-29T02:28:42;13.00;96.00
7204;DHT22;3643;52.460;13.322;2023-05-29T02:31:11;13.00;96.10
7204;DHT22;3643;52.460;13.322;2023-05-29T02:33:39;13.00;96.30
7204;DHT22;3643;52.460;13.322;2023-05-29T02:36:09;13.00;96.40
7204;DHT22;3643;52.460;13.322;2023-05-29T02:38:38;12.90;96.50
7204;DHT22;3643;52.460;13.322;2023-05-29T02:41:07;12.90;96.70
7204;DHT22;3643;52.460;13.322;2023-05-29T02:43:35;12.90;96.80
7204;DHT22;3643;52.460;13.322;2023-05-29T02:46:03;12.80;97.00
7204;DHT22;3643;52.460;13.322;2023-05-29T02:48:31;12.80;97.20
7204;DHT22;3643;52.460;13.322;2023-05-29T02:51:00;12.80;97.40
7204;DHT22;3643;52.460;13.322;2023-05-29T02:53:29;12.70;97.50
7204;DHT22;3643;52.460;13.322;2023-05-29T02:55:58;12.70;97.70
7204;DHT22;3643;52.460;13.322;2023-05-29T02:58:27;12.70;97.90
7204;DHT22;3643;52.460;13.322;2023-05-29T03:00:56;12.80;98.10
7204;DHT22;3643;52.460;13.322;2023-05-29T03:03:24;12.80;98.30
7204;DHT22;3643;52.460;13.322;2023-05-29T03:05:53;12.80;98.50
7204;DHT22;3643;52.460;13.322;2023-05-29T03:08:22;12.80;98.70
7204;DHT22;3643;52.460;13.322;2023-05-29T03:10:52;12.80;98.90
7204;DHT22;3643;52.460;13.322;2023-05-29T03:13:20;12.80;99.20
7204;DHT22;3643;52.460;13.322;2023-05-29T03:15:49;12.80;99.40
7204;DHT22;3643;52.460;13.322;2023-05-29T03:18:18;12.80;99.50
7204;DHT22;3643;52.460;13.322;2023-05-29T03:20:47;12.80;99.80
7204;DHT22;3643;52.460;13.322;2023-05-29T03:23:16;12.80;99.80
7204;DHT22;3643;52.460;13.322;2023-05-29T03:25:45;12.80;99.90
7204;DHT22;3643;52.460;13.322;2023-05-29T03:28:15;12.80;99.90
7204;DHT22;3643;52.460;13.322;2023-05-29T03:30:44;12.80;99.90
7204;DHT22;3643;52.460;13.322;2023-05-29T03:33:12;12.80;99.90
7204;DHT22;3643;52.460;13.322;2023-05-29T03:35:40;12.90;99.90
7204;DHT22;3643;52.460;13.322;2023-05-29T03:38:09;12.90;99.90
7204;DHT22;3643;52.460;13.322;2023-05-29T03:40:38;13.00;99.90
7204;DHT22;3643;52.460;13.322;2023-05-29T03:43:06;13.00;99.90
7204;DHT22;3643;52.460;13.322;2023-05-29T03:45:36;13.00;99.90
7204;DHT22;3643;52.460;13.322;2023-05-29T03:48:04;13.10;99.90
7204;DHT22;3643;52.460;13.322;2023-05-29T03:50:33;13.00;99.90
7204;DHT22;3643;52.460;13.322;2023-05-29T03:53:01;13.10;99.90
7204;DHT22;3643;52.460;13.322;2023-05-29T03:55:31;13.10;99.90
7204;DHT22;3643;52.460;13.322;2023-05-29T03:58:00;13.10;99.90
7204;DHT22;3643;52.460;13.322;2023-05-29T04:00:28;13.20;99.90
7204;DHT22;3643;52.460;13.322;2023-05-29T04:02:58;13.30;99.90
7204;DHT22;3643;52.460;13.322;2023-05-29T04:05:26;13.40;99.90
7204;DHT22;3643;52.460;13.322;2023-05-29T04:07:55;13.50;99.90
7204;DHT22;3643;52.460;13.322;2023-05-29T04:10:40;13.60;99.60
7204;DHT22;3643;52.460;13.322;2023-05-29T04:13:08;13.70;99.40
7204;DHT22;3643;52.460;13.322;2023-05-29T04:15:37;13.80;99.00
7204;DHT22;3643;52.460;13.322;2023-05-29T04:18:06;13.90;98.80
7204;DHT22;3643;52.460;13.322;2023-05-29T04:20:34;14.10;98.60
7204;DHT22;3643;52.460;13.322;2023-05-29T04:23:02;14.20;98.40
7204;DHT22;3643;52.460;13.322;2023-05-29T04:25:31;14.30;98.20
7204;DHT22;3643;52.460;13.322;2023-05-29T04:27:59;14.30;97.40
7204;DHT22;3643;52.460;13.322;2023-05-29T04:30:29;15.10;97.80
7204;DHT22;3643;52.460;13.322;2023-05-29T04:32:59;14.40;97.20
7204;DHT22;3643;52.460;13.322;2023-05-29T04:35:30;14.30;97.20
7204;DHT22;3643;52.460;13.322;2023-05-29T04:37:58;14.40;97.30
7204;DHT22;3643;52.460;13.322;2023-05-29T04:40:26;14.50;97.10
7204;DHT22;3643;52.460;13.322;2023-05-29T04:42:54;14.50;96.90
7204;DHT22;3643;52.460;13.322;2023-05-29T04:45:22;14.70;97.10
7204;DHT22;3643;52.460;13.322;2023-05-29T04:47:50;14.90;96.40
7204;DHT22;3643;52.460;13.322;2023-05-29T04:50:20;14.90;96.50
7204;DHT22;3643;52.460;13.322;2023-05-29T04:52:51;15.20;96.30
7204;DHT22;3643;52.460;13.322;2023-05-29T04:55:19;15.40;96.00
7204;DHT22;3643;52.460;13.322;2023-05-29T04:57:47;15.60;95.80
7204;DHT22;3643;52.460;13.322;2023-05-29T05:00:16;15.70;95.40
7204;DHT22;3643;52.460;13.322;2023-05-29T05:02:45;15.80;95.20
7204;DHT22;3643;52.460;13.322;2023-05-29T05:05:13;15.80;94.80
7204;DHT22;3643;52.460;13.322;2023-05-29T05:07:41;15.60;94.70
7204;DHT22;3643;52.460;13.322;2023-05-29T05:10:11;15.60;94.80
7204;DHT22;3643;52.460;13.322;2023-05-29T05:12:39;15.80;94.60
7204;DHT22;3643;52.460;13.322;2023-05-29T05:15:09;16.70;93.90
7204;DHT22;3643;52.460;13.322;2023-05-29T05:17:37;17.30;92.80
7204;DHT22;3643;52.460;13.322;2023-05-29T05:20:06;17.30;92.50
7204;DHT22;3643;52.460;13.322;2023-05-29T05:22:35;17.30;92.20
7204;DHT22;3643;52.460;13.322;2023-05-29T05:25:04;17.50;92.10
7204;DHT22;3643;52.460;13.322;2023-05-29T05:27:33;18.80;91.60
7204;DHT22;3643;52.460;13.322;2023-05-29T05:30:02;20.00;90.30
7204;DHT22;3643;52.460;13.322;2023-05-29T05:32:30;20.60;87.20
7204;DHT22;3643;52.460;13.322;2023-05-29T05:34:58;20.80;87.60
7204;DHT22;3643;52.460;13.322;2023-05-29T05:37:26;21.20;87.50
7204;DHT22;3643;52.460;13.322;2023-05-29T05:39:54;22.10;85.80
7204;DHT22;3643;52.460;13.322;2023-05-29T05:42:24;22.80;83.70
7204;DHT22;3643;52.460;13.322;2023-05-29T05:44:54;23.20;82.10
7204;DHT22;3643;52.460;13.322;2023-05-29T05:47:22;23.80;81.00
7204;DHT22;3643;52.460;13.322;2023-05-29T05:49:50;24.60;80.30
7204;DHT22;3643;52.460;13.322;2023-05-29T05:52:19;25.40;78.40
7204;DHT22;3643;52.460;13.322;2023-05-29T05:54:47;25.90;77.30
7204;DHT22;3643;52.460;13.322;2023-05-29T05:57:15;25.90;76.30
7204;DHT22;3643;52.460;13.322;2023-05-29T05:59:43;25.70;75.90
7204;DHT22;3643;52.460;13.322;2023-05-29T06:02:12;25.60;75.50
7204;DHT22;3643;52.460;13.322;2023-05-29T06:04:41;25.50;75.10
7204;DHT22;3643;52.460;13.322;2023-05-29T06:07:10;25.90;75.90
7204;DHT22;3643;52.460;13.322;2023-05-29T06:09:38;25.90;75.20
7204;DHT22;3643;52.460;13.322;2023-05-29T06:12:07;25.30;74.60
7204;DHT22;3643;52.460;13.322;2023-05-29T06:14:35;26.10;74.60
7204;DHT22;3643;52.460;13.322;2023-05-29T06:17:06;27.00;73.10
7204;DHT22;3643;52.460;13.322;2023-05-29T06:19:36;27.50;70.70
7204;DHT22;3643;52.460;13.322;2023-05-29T06:22:05;26.90;70.30
7204;DHT22;3643;52.460;13.322;2023-05-29T06:24:33;27.10;71.10
7204;DHT22;3643;52.460;13.322;2023-05-29T06:27:01;28.00;70.90
7204;DHT22;3643;52.460;13.322;2023-05-29T06:29:29;29.00;69.80
7204;DHT22;3643;52.460;13.322;2023-05-29T06:31:58;29.60;68.40
7204;DHT22;3643;52.460;13.322;2023-05-29T06:34:27;30.00;67.90
7204;DHT22;3643;52.460;13.322;2023-05-29T06:36:56;30.30;66.70
7204;DHT22;3643;52.460;13.322;2023-05-29T06:39:24;30.70;66.00
7204;DHT22;3643;52.460;13.322;2023-05-29T06:41:52;30.40;65.90
7204;DHT22;3643;52.460;13.322;2023-05-29T06:44:20;28.70;66.80
7204;DHT22;3643;52.460;13.322;2023-05-29T06:46:48;28.60;66.30
7204;DHT22;3643;52.460;13.322;2023-05-29T06:49:17;27.90;67.00
7204;DHT22;3643;52.460;13.322;2023-05-29T06:51:45;28.00;66.20
7204;DHT22;3643;52.460;13.322;2023-05-29T06:54:14;28.20;66.80
7204;DHT22;3643;52.460;13.322;2023-05-29T06:56:42;28.80;65.60
7204;DHT22;3643;52.460;13.322;2023-05-29T06:59:16;28.60;66.00
7204;DHT22;3643;52.460;13.322;2023-05-29T07:01:44;28.50;65.40
7204;DHT22;3643;52.460;13.322;2023-05-29T07:04:12;27.60;66.10
7204;DHT22;3643;52.460;13.322;2023-05-29T07:06:40;26.90;66.30
7204;DHT22;3643;52.460;13.322;2023-05-29T07:09:09;27.10;66.60
7204;DHT22;3643;52.460;13.322;2023-05-29T07:11:39;27.70;66.40
7204;DHT22;3643;52.460;13.322;2023-05-29T07:14:07;28.40;64.60
7204;DHT22;3643;52.460;13.322;2023-05-29T07:16:35;28.50;64.30
7204;DHT22;3643;52.460;13.322;2023-05-29T07:19:03;29.30;65.10
7204;DHT22;3643;52.460;13.322;2023-05-29T07:21:31;30.60;64.10
7204;DHT22;3643;52.460;13.322;2023-05-29T07:24:00;31.40;63.60
7204;DHT22;3643;52.460;13.322;2023-05-29T07:26:28;31.60;63.40
7204;DHT22;3643;52.460;13.322;2023-05-29T07:28:59;31.00;63.20
7204;DHT22;3643;52.460;13.322;2023-05-29T07:31:30;28.00;65.60
7204;DHT22;3643;52.460;13.322;2023-05-29T07:33:58;27.70;65.60
7204;DHT22;3643;52.460;13.322;2023-05-29T07:36:29;26.90;66.70
7204;DHT22;3643;52.460;13.322;2023-05-29T07:38:58;27.40;67.40
7204;DHT22;3643;52.460;13.322;2023-05-29T07:41:26;28.30;66.60
7204;DHT22;3643;52.460;13.322;2023-05-29T07:43:54;28.60;66.00
7204;DHT22;3643;52.460;13.322;2023-05-29T07:46:24;29.30;65.00
7204;DHT22;3643;52.460;13.322;2023-05-29T07:48:52;30.10;64.10
7204;DHT22;3643;52.460;13.322;2023-05-29T07:51:20;27.90;64.50
7204;DHT22;3643;52.460;13.322;2023-05-29T07:53:49;28.10;65.60
7204;DHT22;3643;52.460;13.322;2023-05-29T07:56:17;28.10;65.60
7204;DHT22;3643;52.460;13.322;2023-05-29T07:58:46;28.70;64.80
7204;DHT22;3643;52.460;13.322;2023-05-29T08:01:14;28.40;64.80
7204;DHT22;3643;52.460;13.322;2023-05-29T08:06:18;26.80;66.50
7204;DHT22;3643;52.460;13.322;2023-05-29T08:08:47;26.80;67.60
7204;DHT22;3643;52.460;13.322;2023-05-29T08:11:15;27.70;65.90
7204;DHT22;3643;52.460;13.322;2023-05-29T08:13:43;26.50;66.20
7204;DHT22;3643;52.460;13.322;2023-05-29T08:16:12;26.90;66.50
7204;DHT22;3643;52.460;13.322;2023-05-29T08:18:43;28.00;66.90
7204;DHT22;3643;52.460;13.322;2023-05-29T08:21:11;26.30;67.10
7204;DHT22;3643;52.460;13.322;2023-05-29T08:23:41;25.60;67.40
7204;DHT22;3643;52.460;13.322;2023-05-29T08:26:09;25.30;68.40
7204;DHT22;3643;52.460;13.322;2023-05-29T08:28:38;25.10;68.60
7204;DHT22;3643;52.460;13.322;2023-05-29T08:31:08;24.30;68.80
7204;DHT22;3643;52.460;13.322;2023-05-29T08:33:36;23.50;70.60
7204;DHT22;3643;52.460;13.322;2023-05-29T08:36:05;23.80;71.50
7204;DHT22;3643;52.460;13.322;2023-05-29T08:38:33;23.00;71.70
7204;DHT22;3643;52.460;13.322;2023-05-29T08:41:04;23.50;71.10
7204;DHT22;3643;52.460;13.322;2023-05-29T08:43:34;24.20;70.70
7204;DHT22;3643;52.460;13.322;2023-05-29T08:46:03;25.60;70.20
7204;DHT22;3643;52.460;13.322;2023-05-29T08:48:31;25.60;68.80
7204;DHT22;3643;52.460;13.322;2023-05-29T08:51:02;25.60;69.00
7204;DHT22;3643;52.460;13.322;2023-05-29T08:53:31;25.20;69.40
7204;DHT22;3643;52.460;13.322;2023-05-29T08:56:03;25.00;69.60
7204;DHT22;3643;52.460;13.322;2023-05-29T08:58:31;24.50;70.20
7204;DHT22;3643;52.460;13.322;2023-05-29T09:01:00;24.10;70.70
7204;DHT22;3643;52.460;13.322;2023-05-29T09:03:29;22.90;72.60
7204;DHT22;3643;52.460;13.322;2023-05-29T09:05:58;22.50;73.50
7204;DHT22;3643;52.460;13.322;2023-05-29T09:08:27;21.80;73.80
7204;DHT22;3643;52.460;13.322;2023-05-29T09:10:55;21.80;75.20
7204;DHT22;3643;52.460;13.322;2023-05-29T09:13:26;21.80;75.60
7204;DHT22;3643;52.460;13.322;2023-05-29T09:15:57;21.90;75.80
7204;DHT22;3643;52.460;13.322;2023-05-29T09:18:29;22.10;76.00
7204;DHT22;3643;52.460;13.322;2023-05-29T09:20:58;21.60;76.60
7204;DHT22;3643;52.460;13.322;2023-05-29T09:23:29;21.50;76.80
7204;DHT22;3643;52.460;13.322;2023-05-29T09:25:57;21.40;77.40
7204;DHT22;3643;52.460;13.322;2023-05-29T09:28:30;21.70;77.10
7204;DHT22;3643;52.460;13.322;2023-05-29T09:30:58;21.80;76.20
7204;DHT22;3643;52.460;13.322;2023-05-29T09:33:26;21.70;76.20
7204;DHT22;3643;52.460;13.322;2023-05-29T09:35:54;21.60;77.80
7204;DHT22;3643;52.460;13.322;2023-05-29T09:38:23;21.80;77.10
7204;DHT22;3643;52.460;13.322;2023-05-29T09:41:12;21.90;75.90
7204;DHT22;3643;52.460;13.322;2023-05-29T09:43:42;21.90;75.70
7204;DHT22;3643;52.460;13.322;2023-05-29T09:46:15;21.80;75.30
7204;DHT22;3643;52.460;13.322;2023-05-29T09:48:44;21.50;76.00
7204;DHT22;3643;52.460;13.322;2023-05-29T09:51:21;21.20;76.60
7204;DHT22;3643;52.460;13.322;2023-05-29T09:53:52;21.20;77.00
7204;DHT22;3643;52.460;13.322;2023-05-29T09:56:23;21.30;77.20
7204;DHT22;3643;52.460;13.322;2023-05-29T09:58:53;21.50;77.00
7204;DHT22;3643;52.460;13.322;2023-05-29T10:01:24;21.40;76.40
7204;DHT22;3643;52.460;13.322;2023-05-29T10:03:53;21.50;77.30
7204;DHT22;3643;52.460;13.322;2023-05-29T10:06:22;21.30;76.90
7204;DHT22;3643;52.460;13.322;2023-05-29T10:08:52;21.40;77.30
7204;DHT22;3643;52.460;13.322;2023-05-29T10:11:23;21.50;77.00
7204;DHT22;3643;52.460;13.322;2023-05-29T10:13:57;21.90;77.60
7204;DHT22;3643;52.460;13.322;2023-05-29T10:16:25;22.30;77.60
7204;DHT22;3643;52.460;13.322;2023-05-29T10:18:56;22.40;76.20
7204;DHT22;3643;52.460;13.322;2023-05-29T10:21:27;22.00;76.30
7204;DHT22;3643;52.460;13.322;2023-05-29T10:23:57;21.50;76.90
7204;DHT22;3643;52.460;13.322;2023-05-29T10:26:26;21.40;77.60
7204;DHT22;3643;52.460;13.322;2023-05-29T10:29:03;21.50;77.10
7204;DHT22;3643;52.460;13.322;2023-05-29T10:31:39;21.70;76.80
7204;DHT22;3643;52.460;13.322;2023-05-29T10:34:18;22.00;76.30
7204;DHT22;3643;52.460;13.322;2023-05-29T10:36:56;21.90;75.40
7204;DHT22;3643;52.460;13.322;2023-05-29T10:39:28;21.70;75.40
7204;DHT22;3643;52.460;13.322;2023-05-29T10:41:56;21.70;75.70
7204;DHT22;3643;52.460;13.322;2023-05-29T10:44:40;21.90;76.30
7204;DHT22;3643;52.460;13.322;2023-05-29T10:47:09;22.10;76.50
7204;DHT22;3643;52.460;13.322;2023-05-29T10:49:39;22.30;75.70
7204;DHT22;3643;52.460;13.322;2023-05-29T10:52:19;22.50;75.10
7204;DHT22;3643;52.460;13.322;2023-05-29T10:54:53;22.40;75.00
7204;DHT22;3643;52.460;13.322;2023-05-29T10:57:22;22.20;74.60
7204;DHT22;3643;52.460;13.322;2023-05-29T11:00:02;21.80;74.60
7204;DHT22;3643;52.460;13.322;2023-05-29T11:02:36;21.60;72.90
7204;DHT22;3643;52.460;13.322;2023-05-29T11:05:17;21.60;71.60
7204;DHT22;3643;52.460;13.322;2023-05-29T11:07:53;21.50;72.70
7204;DHT22;3643;52.460;13.322;2023-05-29T11:10:42;21.70;73.00
7204;DHT22;3643;52.460;13.322;2023-05-29T11:13:23;21.70;73.10
7204;DHT22;3643;52.460;13.322;2023-05-29T11:16:35;21.80;73.50
7204;DHT22;3643;52.460;13.322;2023-05-29T11:19:05;21.70;74.30
7204;DHT22;3643;52.460;13.322;2023-05-29T11:21:46;22.10;74.60
7204;DHT22;3643;52.460;13.322;2023-05-29T11:24:22;22.40;74.40
7204;DHT22;3643;52.460;13.322;2023-05-29T11:26:52;22.60;74.30
7204;DHT22;3643;52.460;13.322;2023-05-29T11:29:24;22.50;73.90
7204;DHT22;3643;52.460;13.322;2023-05-29T11:31:58;22.20;74.70
7204;DHT22;3643;52.460;13.322;2023-05-29T11:34:30;22.00;74.60
7204;DHT22;3643;52.460;13.322;2023-05-29T11:36:59;22.20;74.20
7204;DHT22;3643;52.460;13.322;2023-05-29T11:39:28;22.30;72.60
7204;DHT22;3643;52.460;13.322;2023-05-29T11:41:58;22.30;72.10
7204;DHT22;3643;52.460;13.322;2023-05-29T11:44:27;22.40;70.80
7204;DHT22;3643;52.460;13.322;2023-05-29T11:47:01;22.60;71.20
7204;DHT22;3643;52.460;13.322;2023-05-29T11:49:33;22.70;71.60
7204;DHT22;3643;52.460;13.322;2023-05-29T11:52:08;23.00;70.70
7204;DHT22;3643;52.460;13.322;2023-05-29T11:54:43;23.30;70.90
7204;DHT22;3643;52.460;13.322;2023-05-29T11:57:17;23.70;71.60
7204;DHT22;3643;52.460;13.322;2023-05-29T11:59:46;23.80;70.60
7204;DHT22;3643;52.460;13.322;2023-05-29T12:02:16;23.60;70.60
7204;DHT22;3643;52.460;13.322;2023-05-29T12:04:59;23.40;69.60
7204;DHT22;3643;52.460;13.322;2023-05-29T12:07:28;23.30;68.50
7204;DHT22;3643;52.460;13.322;2023-05-29T12:09:56;22.50;68.50
7204;DHT22;3643;52.460;13.322;2023-05-29T12:12:25;23.10;69.80
7204;DHT22;3643;52.460;13.322;2023-05-29T12:14:56;23.10;70.90
7204;DHT22;3643;52.460;13.322;2023-05-29T12:17:26;23.10;72.50
7204;DHT22;3643;52.460;13.322;2023-05-29T12:19:57;23.30;71.70
7204;DHT22;3643;52.460;13.322;2023-05-29T12:22:33;23.10;71.40
7204;DHT22;3643;52.460;13.322;2023-05-29T12:25:06;23.00;71.80
7204;DHT22;3643;52.460;13.322;2023-05-29T12:27:36;22.70;72.30
7204;DHT22;3643;52.460;13.322;2023-05-29T12:30:09;22.40;73.50
7204;DHT22;3643;52.460;13.322;2023-05-29T12:32:49;22.40;72.90
7204;DHT22;3643;52.460;13.322;2023-05-29T12:35:19;22.40;72.60
7204;DHT22;3643;52.460;13.322;2023-05-29T12:37:49;22.40;72.40
7204;DHT22;3643;52.460;13.322;2023-05-29T12:40:18;22.40;72.80
7204;DHT22;3643;52.460;13.322;2023-05-29T12:42:48;22.60;73.40
7204;DHT22;3643;52.460;13.322;2023-05-29T12:45:18;22.70;73.90
7204;DHT22;3643;52.460;13.322;2023-05-29T12:47:50;23.10;74.00
7204;DHT22;3643;52.460;13.322;2023-05-29T12:50:20;23.30;72.50
7204;DHT22;3643;52.460;13.322;2023-05-29T12:52:59;23.30;71.20
7204;DHT22;3643;52.460;13.322;2023-05-29T12:55:30;23.40;72.10
7204;DHT22;3643;52.460;13.322;2023-05-29T12:58:00;23.60;72.00
7204;DHT22;3643;52.460;13.322;2023-05-29T13:00:28;23.50;70.90
7204;DHT22;3643;52.460;13.322;2023-05-29T13:02:58;23.10;70.60
7204;DHT22;3643;52.460;13.322;2023-05-29T13:05:28;22.80;70.90
7204;DHT22;3643;52.460;13.322;2023-05-29T13:07:57;22.30;71.40
7204;DHT22;3643;52.460;13.322;2023-05-29T13:10:26;22.30;70.20
7204;DHT22;3643;52.460;13.322;2023-05-29T13:12:55;22.00;70.40
7204;DHT22;3643;52.460;13.322;2023-05-29T13:15:26;22.00;70.40
7204;DHT22;3643;52.460;13.322;2023-05-29T13:17:54;21.80;70.30
7204;DHT22;3643;52.460;13.322;2023-05-29T13:20:24;21.60;71.60
7204;DHT22;3643;52.460;13.322;2023-05-29T13:22:52;21.90;71.20
7204;DHT22;3643;52.460;13.322;2023-05-29T13:25:22;22.20;71.20
7204;DHT22;3643;52.460;13.322;2023-05-29T13:27:52;22.50;71.30
7204;DHT22;3643;52.460;13.322;2023-05-29T13:30:21;22.60;70.80
7204;DHT22;3643;52.460;13.322;2023-05-29T13:32:50;22.60;71.40
7204;DHT22;3643;52.460;13.322;2023-05-29T13:35:19;22.60;71.40
7204;DHT22;3643;52.460;13.322;2023-05-29T13:37:49;22.40;71.00
7204;DHT22;3643;52.460;13.322;2023-05-29T13:40:17;22.00;70.90
7204;DHT22;3643;52.460;13.322;2023-05-29T13:42:45;21.90;71.50
7204;DHT22;3643;52.460;13.322;2023-05-29T13:45:14;21.80;72.30
7204;DHT22;3643;52.460;13.322;2023-05-29T13:47:42;21.90;71.70
7204;DHT22;3643;52.460;13.322;2023-05-29T13:50:10;21.60;70.90
7204;DHT22;3643;52.460;13.322;2023-05-29T13:52:39;22.30;71.30
7204;DHT22;3643;52.460;13.322;2023-05-29T13:55:08;22.20;71.70
7204;DHT22;3643;52.460;13.322;2023-05-29T13:57:37;22.30;71.90
7204;DHT22;3643;52.460;13.322;2023-05-29T14:00:07;22.60;71.90
7204;DHT22;3643;52.460;13.322;2023-05-29T14:02:36;22.90;72.00
7204;DHT22;3643;52.460;13.322;2023-05-29T14:05:05;22.70;71.50
7204;DHT22;3643;52.460;13.322;2023-05-29T14:07:34;22.60;70.80
7204;DHT22;3643;52.460;13.322;2023-05-29T14:10:03;22.80;71.60
7204;DHT22;3643;52.460;13.322;2023-05-29T14:12:33;23.20;72.00
7204;DHT22;3643;52.460;13.322;2023-05-29T14:15:02;23.10;71.90
7204;DHT22;3643;52.460;13.322;2023-05-29T14:17:30;23.10;71.50
7204;DHT22;3643;52.460;13.322;2023-05-29T14:19:58;22.90;71.50
7204;DHT22;3643;52.460;13.322;2023-05-29T14:22:31;22.80;71.90
7204;DHT22;3643;52.460;13.322;2023-05-29T14:25:01;22.50;71.70
7204;DHT22;3643;52.460;13.322;2023-05-29T14:27:32;22.30;71.90
7204;DHT22;3643;52.460;13.322;2023-05-29T14:30:01;22.00;72.00
7204;DHT22;3643;52.460;13.322;2023-05-29T14:32:30;22.00;72.10
7204;DHT22;3643;52.460;13.322;2023-05-29T14:34:59;21.90;72.00
7204;DHT22;3643;52.460;13.322;2023-05-29T14:37:28;21.80;72.60
7204;DHT22;3643;52.460;13.322;2023-05-29T14:39:56;21.80;72.40
7204;DHT22;3643;52.460;13.322;2023-05-29T14:42:25;21.70;71.80
7204;DHT22;3643;52.460;13.322;2023-05-29T14:44:55;21.70;71.20
7204;DHT22;3643;52.460;13.322;2023-05-29T14:47:23;21.70;71.30
7204;DHT22;3643;52.460;13.322;2023-05-29T14:49:52;21.70;70.80
7204;DHT22;3643;52.460;13.322;2023-05-29T14:52:20;21.70;70.80
7204;DHT22;3643;52.460;13.322;2023-05-29T14:54:48;21.80;70.60
7204;DHT22;3643;52.460;13.322;2023-05-29T14:57:17;21.70;70.10
7204;DHT22;3643;52.460;13.322;2023-05-29T14:59:45;21.70;70.60
7204;DHT22;3643;52.460;13.322;2023-05-29T15:02:15;21.80;70.80
7204;DHT22;3643;52.460;13.322;2023-05-29T15:04:43;21.80;70.40
7204;DHT22;3643;52.460;13.322;2023-05-29T15:07:12;21.80;70.10
7204;DHT22;3643;52.460;13.322;2023-05-29T15:09:40;22.00;70.40
7204;DHT22;3643;52.460;13.322;2023-05-29T15:12:09;22.10;70.40
7204;DHT22;3643;52.460;13.322;2023-05-29T15:14:37;22.10;69.00
7204;DHT22;3643;52.460;13.322;2023-05-29T15:17:06;22.00;68.70
7204;DHT22;3643;52.460;13.322;2023-05-29T15:19:36;22.10;69.10
7204;DHT22;3643;52.460;13.322;2023-05-29T15:22:05;22.10;69.50
7204;DHT22;3643;52.460;13.322;2023-05-29T15:24:34;22.10;70.30
7204;DHT22;3643;52.460;13.322;2023-05-29T15:27:02;22.10;70.30
7204;DHT22;3643;52.460;13.322;2023-05-29T15:29:33;22.20;69.70
7204;DHT22;3643;52.460;13.322;2023-05-29T15:32:03;22.20;69.20
7204;DHT22;3643;52.460;13.322;2023-05-29T15:34:31;22.20;68.90
7204;DHT22;3643;52.460;13.322;2023-05-29T15:37:02;22.20;69.20
7204;DHT22;3643;52.460;13.322;2023-05-29T15:39:30;22.20;69.70
7204;DHT22;3643;52.460;13.322;2023-05-29T15:41:58;22.30;69.20
7204;DHT22;3643;52.460;13.322;2023-05-29T15:44:27;22.30;68.80
7204;DHT22;3643;52.460;13.322;2023-05-29T15:46:55;22.30;68.40
7204;DHT22;3643;52.460;13.322;2023-05-29T15:49:24;22.30;68.90
7204;DHT22;3643;52.460;13.322;2023-05-29T15:51:52;22.40;68.40
7204;DHT22;3643;52.460;13.322;2023-05-29T15:54:22;22.40;68.10
7204;DHT22;3643;52.460;13.322;2023-05-29T15:56:50;22.30;68.50
7204;DHT22;3643;52.460;13.322;2023-05-29T15:59:19;22.30;68.50
7204;DHT22;3643;52.460;13.322;2023-05-29T16:01:47;22.20;69.30
7204;DHT22;3643;52.460;13.322;2023-05-29T16:04:16;22.10;70.00